createdAt,value
2019-06-26T00:00:09.138Z,80.27
2019-06-26T00:00:45.211Z,81.40
2019-06-26T00:01:21.161Z,81.01
2019-06-26T00:01:57.098Z,80.81
2019-06-26T00:02:32.949Z,80.23
2019-06-26T00:03:08.806Z,81.34
2019-06-26T00:03:44.674Z,81.17
2019-06-26T00:04:20.685Z,81.47
2019-06-26T00:04:56.801Z,81.25
2019-06-26T00:05:32.727Z,80.74
2019-06-26T00:06:08.728Z,80.26
2019-06-26T00:06:44.554Z,80.26
2019-06-26T00:07:20.407Z,80.73
2019-06-26T00:07:56.326Z,80.68
2019-06-26T00:08:32.180Z,80.83
2019-06-26T00:09:10.415Z,80.83
2019-06-26T00:09:46.330Z,80.88
2019-06-26T00:10:22.346Z,80.88
2019-06-26T00:10:58.254Z,80.91
2019-06-26T00:11:34.087Z,80.85
2019-06-26T00:12:09.925Z,80.85
2019-06-26T00:12:45.794Z,80.55
2019-06-26T00:13:26.202Z,79.90
2019-06-26T00:13:59.238Z,80.27
2019-06-26T00:14:38.585Z,80.32
2019-06-26T00:15:12.840Z,79.65
2019-06-26T00:15:49.777Z,79.81
2019-06-26T00:16:25.585Z,79.75
2019-06-26T00:17:01.359Z,79.56
2019-06-26T00:17:37.234Z,80.25
2019-06-26T00:18:13.072Z,80.25
2019-06-26T00:18:48.945Z,80.07
2019-06-26T00:19:24.986Z,80.40
2019-06-26T00:20:00.919Z,79.73
2019-06-26T00:20:36.805Z,80.02
2019-06-26T00:21:12.646Z,79.67
2019-06-26T00:21:48.632Z,79.67
2019-06-26T00:22:24.441Z,80.13
2019-06-26T00:23:00.284Z,80.13
2019-06-26T00:23:36.829Z,80.15
2019-06-26T00:24:23.779Z,80.15
2019-06-26T00:24:59.748Z,80.23
2019-06-26T00:25:36.581Z,79.88
2019-06-26T00:26:14.829Z,79.94
2019-06-26T00:26:50.808Z,79.94
2019-06-26T00:27:26.817Z,80.17
2019-06-26T00:28:04.474Z,80.24
2019-06-26T00:28:41.081Z,80.21
2019-06-26T00:29:16.997Z,80.51
2019-06-26T00:29:52.880Z,80.19
2019-06-26T00:30:29.827Z,80.19
2019-06-26T00:31:05.860Z,79.64
2019-06-26T00:31:41.731Z,79.64
2019-06-26T00:32:17.571Z,80.17
2019-06-26T00:32:55.765Z,80.14
2019-06-26T00:33:34.647Z,80.14
2019-06-26T00:34:12.859Z,80.14
2019-06-26T00:34:50.550Z,80.14
2019-06-26T00:35:31.207Z,80.00
2019-06-26T00:36:07.185Z,80.00
2019-06-26T00:36:46.003Z,79.94
2019-06-26T00:37:22.554Z,79.58
2019-06-26T00:37:58.445Z,79.58
2019-06-26T00:38:41.504Z,79.81
2019-06-26T00:39:19.696Z,79.75
2019-06-26T00:40:03.118Z,79.76
2019-06-26T00:40:39.060Z,79.76
2019-06-26T00:41:14.928Z,79.66
2019-06-26T00:41:52.883Z,79.64
2019-06-26T00:42:33.560Z,79.74
2019-06-26T00:43:09.447Z,79.62
2019-06-26T00:43:46.306Z,79.74
2019-06-26T00:44:22.159Z,79.59
2019-06-26T00:44:57.984Z,79.59
2019-06-26T00:45:38.082Z,79.64
2019-06-26T00:46:17.182Z,79.62
2019-06-26T00:46:55.346Z,79.57
2019-06-26T00:47:31.420Z,79.51
2019-06-26T00:48:07.390Z,79.41
2019-06-26T00:48:47.543Z,79.33
2019-06-26T00:49:24.522Z,79.28
2019-06-26T00:50:03.761Z,79.97
2019-06-26T00:50:48.013Z,79.07
2019-06-26T00:51:23.927Z,79.07
2019-06-26T00:52:00.010Z,79.07
2019-06-26T00:52:43.005Z,79.04
2019-06-26T00:53:21.038Z,78.72
2019-06-26T00:53:57.134Z,78.72
2019-06-26T00:54:33.852Z,78.98
2019-06-26T00:55:09.843Z,78.94
2019-06-26T00:55:55.286Z,78.91
2019-06-26T00:56:33.103Z,78.78
2019-06-26T00:57:08.982Z,78.61
2019-06-26T00:57:45.009Z,78.50
2019-06-26T00:58:29.453Z,78.66
2019-06-26T00:59:06.115Z,78.45
2019-06-26T00:59:42.903Z,78.32
2019-06-26T01:00:27.124Z,78.04
2019-06-26T01:01:11.988Z,77.60
2019-06-26T01:01:51.743Z,77.33
2019-06-26T01:02:32.303Z,76.90
2019-06-26T01:03:14.479Z,76.54
2019-06-26T01:04:50.506Z,76.21
2019-06-26T01:05:31.656Z,76.17
2019-06-26T01:06:13.555Z,75.88
2019-06-26T01:06:58.899Z,75.93
2019-06-26T01:07:34.822Z,75.55
2019-06-26T01:08:19.172Z,75.39
2019-06-26T01:08:55.818Z,74.99
2019-06-26T01:09:34.726Z,74.55
2019-06-26T01:10:11.321Z,74.16
2019-06-26T01:10:52.289Z,73.73
2019-06-26T01:11:30.856Z,73.73
2019-06-26T01:12:08.879Z,73.69
2019-06-26T01:12:47.475Z,73.63
2019-06-26T01:13:31.937Z,73.46
2019-06-26T01:14:12.079Z,73.40
2019-06-26T01:14:50.116Z,73.22
2019-06-26T01:16:20.881Z,72.85
2019-06-26T01:17:53.230Z,72.58
2019-06-26T01:18:33.659Z,72.14
2019-06-26T01:19:22.660Z,71.81
2019-06-26T01:20:01.160Z,71.42
2019-06-26T01:20:39.501Z,71.25
2019-06-26T01:22:23.624Z,70.95
2019-06-26T01:23:05.274Z,70.47
2019-06-26T01:23:47.060Z,70.20
2019-06-26T01:24:38.291Z,69.88
2019-06-26T01:25:14.167Z,69.94
2019-06-26T01:25:50.085Z,69.82
2019-06-26T01:26:28.735Z,69.79
2019-06-26T01:27:09.146Z,69.72
2019-06-26T01:27:48.156Z,69.65
2019-06-26T01:28:24.705Z,69.53
2019-06-26T01:29:00.612Z,69.42
2019-06-26T01:29:40.553Z,69.28
2019-06-26T01:30:17.364Z,68.98
2019-06-26T01:30:56.821Z,68.78
2019-06-26T01:31:36.673Z,68.61
2019-06-26T01:32:14.139Z,68.37
2019-06-26T01:32:57.983Z,68.23
2019-06-26T01:33:34.899Z,68.09
2019-06-26T01:34:12.440Z,68.08
2019-06-26T01:34:59.841Z,68.08
2019-06-26T01:35:40.284Z,68.03
2019-06-26T01:36:19.096Z,68.12
2019-06-26T01:37:06.677Z,67.91
2019-06-26T01:37:49.291Z,67.78
2019-06-26T01:38:33.501Z,67.76
2019-06-26T01:40:04.922Z,67.66
2019-06-26T01:40:41.970Z,67.62
2019-06-26T01:41:23.315Z,67.57
2019-06-26T01:42:04.088Z,67.45
2019-06-26T01:42:42.327Z,67.27
2019-06-26T01:43:19.110Z,67.01
2019-06-26T01:43:55.014Z,67.07
2019-06-26T01:44:34.986Z,66.93
2019-06-26T01:45:11.713Z,66.60
2019-06-26T01:45:56.266Z,66.26
2019-06-26T01:47:30.745Z,65.88
2019-06-26T01:48:10.372Z,65.47
2019-06-26T01:48:48.663Z,65.19
2019-06-26T01:49:27.277Z,65.29
2019-06-26T01:50:04.269Z,65.54
2019-06-26T01:50:42.546Z,65.83
2019-06-26T01:51:19.291Z,66.00
2019-06-26T01:52:01.297Z,66.03
2019-06-26T01:52:50.141Z,65.87
2019-06-26T01:53:27.637Z,65.73
2019-06-26T01:55:07.111Z,64.83
2019-06-26T01:55:47.805Z,64.66
2019-06-26T01:56:35.230Z,64.77
2019-06-26T01:57:11.379Z,64.67
2019-06-26T01:57:52.131Z,64.33
2019-06-26T01:59:32.059Z,64.01
2019-06-26T02:00:08.959Z,63.82
2019-06-26T02:00:57.056Z,63.56
2019-06-26T02:01:41.897Z,63.38
2019-06-26T02:02:22.006Z,63.19
2019-06-26T02:03:53.673Z,62.79
2019-06-26T02:04:29.471Z,62.91
2019-06-26T02:05:06.344Z,62.93
2019-06-26T02:05:50.949Z,63.29
2019-06-26T02:06:26.838Z,63.73
2019-06-26T02:07:02.946Z,64.07
2019-06-26T02:07:40.421Z,64.12
2019-06-26T02:08:16.789Z,64.11
2019-06-26T02:08:55.612Z,64.17
2019-06-26T02:10:28.274Z,64.35
2019-06-26T02:11:18.501Z,63.92
2019-06-26T02:12:03.158Z,63.69
2019-06-26T02:12:41.720Z,63.37
2019-06-26T02:13:22.225Z,63.00
2019-06-26T02:13:59.690Z,62.66
2019-06-26T02:14:44.980Z,62.48
2019-06-26T02:15:21.837Z,62.54
2019-06-26T02:15:58.652Z,62.62
2019-06-26T02:16:34.950Z,62.67
2019-06-26T02:17:10.818Z,62.64
2019-06-26T02:17:47.029Z,62.62
2019-06-26T02:18:41.978Z,62.25
2019-06-26T02:19:18.557Z,61.88
2019-06-26T02:19:55.572Z,61.60
2019-06-26T02:20:36.820Z,61.52
2019-06-26T02:21:12.636Z,61.49
2019-06-26T02:21:49.750Z,61.48
2019-06-26T02:22:34.172Z,61.39
2019-06-26T02:23:10.898Z,61.30
2019-06-26T02:23:50.317Z,61.25
2019-06-26T02:24:28.765Z,61.15
2019-06-26T02:25:12.726Z,61.07
2019-06-26T02:25:50.524Z,60.90
2019-06-26T02:26:29.694Z,61.13
2019-06-26T02:28:19.366Z,61.27
2019-06-26T02:28:59.351Z,61.52
2019-06-26T02:29:36.968Z,61.43
2019-06-26T02:30:13.638Z,61.67
2019-06-26T02:30:51.989Z,61.79
2019-06-26T02:31:32.213Z,61.82
2019-06-26T02:32:08.908Z,61.50
2019-06-26T02:32:46.922Z,61.28
2019-06-26T02:33:28.846Z,60.92
2019-06-26T02:34:06.844Z,60.67
2019-06-26T02:34:46.633Z,60.09
2019-06-26T02:35:23.082Z,59.73
2019-06-26T02:36:00.560Z,59.59
2019-06-26T02:36:38.069Z,59.44
2019-06-26T02:37:22.236Z,59.60
2019-06-26T02:38:12.680Z,59.61
2019-06-26T02:38:48.551Z,59.40
2019-06-26T02:39:24.980Z,59.74
2019-06-26T02:40:00.989Z,59.96
2019-06-26T02:40:36.919Z,60.03
2019-06-26T02:41:13.746Z,60.04
2019-06-26T02:41:49.734Z,59.95
2019-06-26T02:42:30.676Z,59.60
2019-06-26T02:43:09.878Z,59.49
2019-06-26T02:43:48.528Z,59.69
2019-06-26T02:44:24.406Z,59.66
2019-06-26T02:45:09.643Z,59.75
2019-06-26T02:45:46.757Z,59.73
2019-06-26T02:46:22.693Z,59.52
2019-06-26T02:47:18.328Z,59.48
2019-06-26T02:47:41.520Z,59.52
2019-06-26T02:48:20.533Z,59.52
2019-06-26T02:48:58.941Z,59.58
2019-06-26T02:49:35.073Z,59.64
2019-06-26T02:50:10.933Z,59.73
2019-06-26T02:50:56.422Z,59.88
2019-06-26T02:51:32.380Z,60.00
2019-06-26T02:52:08.991Z,60.05
2019-06-26T02:52:45.447Z,60.11
2019-06-26T02:53:21.562Z,60.26
2019-06-26T02:53:57.534Z,60.50
2019-06-26T02:54:33.433Z,60.95
2019-06-26T02:55:09.979Z,61.17
2019-06-26T02:55:45.917Z,61.54
2019-06-26T02:56:21.875Z,61.79
2019-06-26T02:56:57.737Z,62.10
2019-06-26T02:57:33.592Z,61.89
2019-06-26T02:58:09.459Z,61.90
2019-06-26T02:58:45.420Z,61.96
2019-06-26T02:59:21.863Z,61.83
2019-06-26T02:59:58.914Z,61.74
2019-06-26T03:00:34.703Z,61.76
2019-06-26T03:01:10.660Z,61.80
2019-06-26T03:01:46.538Z,61.60
2019-06-26T03:02:22.364Z,61.53
2019-06-26T03:02:58.272Z,61.12
2019-06-26T03:03:34.168Z,60.92
2019-06-26T03:04:10.031Z,60.96
2019-06-26T03:04:45.812Z,61.10
2019-06-26T03:05:21.637Z,61.31
2019-06-26T03:05:57.704Z,61.24
2019-06-26T03:06:33.529Z,61.18
2019-06-26T03:07:09.396Z,61.26
2019-06-26T03:07:48.150Z,61.22
2019-06-26T03:08:23.985Z,61.17
2019-06-26T03:08:59.843Z,61.18
2019-06-26T03:09:35.688Z,61.24
2019-06-26T03:10:12.043Z,61.18
2019-06-26T03:10:47.902Z,61.14
2019-06-26T03:11:24.003Z,61.16
2019-06-26T03:11:59.874Z,61.25
2019-06-26T03:12:35.718Z,61.29
2019-06-26T03:13:11.667Z,61.17
2019-06-26T03:13:47.463Z,61.16
2019-06-26T03:14:23.779Z,61.33
2019-06-26T03:15:08.987Z,61.07
2019-06-26T03:15:37.293Z,61.02
2019-06-26T03:16:13.145Z,60.82
2019-06-26T03:16:48.963Z,60.59
2019-06-26T03:17:24.752Z,60.47
2019-06-26T03:18:00.588Z,60.46
2019-06-26T03:18:36.793Z,60.30
2019-06-26T03:19:12.665Z,60.27
2019-06-26T03:19:48.463Z,60.22
2019-06-26T03:20:27.396Z,60.13
2019-06-26T03:21:03.229Z,59.92
2019-06-26T03:21:39.083Z,59.87
2019-06-26T03:22:14.842Z,59.73
2019-06-26T03:22:50.658Z,59.76
2019-06-26T03:23:26.499Z,59.62
2019-06-26T03:24:02.312Z,59.53
2019-06-26T03:24:38.197Z,59.57
2019-06-26T03:25:14.177Z,59.65
2019-06-26T03:25:50.012Z,59.66
2019-06-26T03:26:25.843Z,59.71
2019-06-26T03:27:01.694Z,59.63
2019-06-26T03:27:37.683Z,59.63
2019-06-26T03:28:14.620Z,59.57
2019-06-26T03:28:50.764Z,59.46
2019-06-26T03:29:27.073Z,59.42
2019-06-26T03:30:03.140Z,59.41
2019-06-26T03:30:39.291Z,59.65
2019-06-26T03:31:15.355Z,59.77
2019-06-26T03:31:51.575Z,59.63
2019-06-26T03:32:27.832Z,59.59
2019-06-26T03:33:04.190Z,59.60
2019-06-26T03:33:41.292Z,59.54
2019-06-26T03:34:17.378Z,59.59
2019-06-26T03:34:53.648Z,59.66
2019-06-26T03:35:29.902Z,59.65
2019-06-26T03:36:06.042Z,59.48
2019-06-26T03:36:42.406Z,59.40
2019-06-26T03:37:18.639Z,59.32
2019-06-26T03:37:54.891Z,59.46
2019-06-26T03:38:31.148Z,59.41
2019-06-26T03:39:08.653Z,59.51
2019-06-26T03:39:44.959Z,59.62
2019-06-26T03:40:21.169Z,59.66
2019-06-26T03:40:57.384Z,59.53
2019-06-26T03:41:33.622Z,59.44
2019-06-26T03:42:09.876Z,59.56
2019-06-26T03:42:46.141Z,59.58
2019-06-26T03:43:22.475Z,59.42
2019-06-26T03:43:58.751Z,59.23
2019-06-26T03:44:35.020Z,59.31
2019-06-26T03:45:24.637Z,59.23
2019-06-26T03:45:48.922Z,59.28
2019-06-26T03:46:24.826Z,59.20
2019-06-26T03:47:00.671Z,59.11
2019-06-26T03:47:36.631Z,59.12
2019-06-26T03:48:12.512Z,59.26
2019-06-26T03:48:48.460Z,59.17
2019-06-26T03:49:24.332Z,59.19
2019-06-26T03:50:00.278Z,59.42
2019-06-26T03:50:36.447Z,59.39
2019-06-26T03:51:14.113Z,59.36
2019-06-26T03:51:50.475Z,59.39
2019-06-26T03:52:26.605Z,59.49
2019-06-26T03:53:02.920Z,59.44
2019-06-26T03:53:39.022Z,59.66
2019-06-26T03:54:15.148Z,59.68
2019-06-26T03:54:51.425Z,59.56
2019-06-26T03:55:27.567Z,59.49
2019-06-26T03:56:03.645Z,59.33
2019-06-26T03:56:39.802Z,59.49
2019-06-26T03:57:15.937Z,59.41
2019-06-26T03:57:52.045Z,59.37
2019-06-26T03:58:28.125Z,59.42
2019-06-26T03:59:04.239Z,59.44
2019-06-26T03:59:40.327Z,59.26
2019-06-26T04:00:17.995Z,59.06
2019-06-26T04:00:54.226Z,59.26
2019-06-26T04:01:30.329Z,59.37
2019-06-26T04:02:06.561Z,59.54
2019-06-26T04:02:42.648Z,59.68
2019-06-26T04:03:18.800Z,59.74
2019-06-26T04:03:57.373Z,59.81
2019-06-26T04:04:32.836Z,59.82
2019-06-26T04:05:09.016Z,59.65
2019-06-26T04:05:45.089Z,59.65
2019-06-26T04:06:21.406Z,59.24
2019-06-26T04:06:57.563Z,59.12
2019-06-26T04:07:33.764Z,58.94
2019-06-26T04:08:09.977Z,58.98
2019-06-26T04:08:46.299Z,59.38
2019-06-26T04:09:22.407Z,59.47
2019-06-26T04:09:58.459Z,59.48
2019-06-26T04:10:34.652Z,59.55
2019-06-26T04:11:10.903Z,59.54
2019-06-26T04:11:47.141Z,59.58
2019-06-26T04:12:23.298Z,59.49
2019-06-26T04:12:59.409Z,59.30
2019-06-26T04:13:35.697Z,59.38
2019-06-26T04:14:11.762Z,59.35
2019-06-26T04:14:47.911Z,59.37
2019-06-26T04:15:24.088Z,59.26
2019-06-26T04:16:00.278Z,59.20
2019-06-26T04:16:36.421Z,59.12
2019-06-26T04:17:12.661Z,59.13
2019-06-26T04:17:48.601Z,58.86
2019-06-26T04:18:24.631Z,58.57
2019-06-26T04:19:00.653Z,58.18
2019-06-26T04:19:36.892Z,57.87
2019-06-26T04:20:12.737Z,57.57
2019-06-26T04:20:48.656Z,57.56
2019-06-26T04:21:24.444Z,57.42
2019-06-26T04:22:00.277Z,57.26
2019-06-26T04:22:36.108Z,57.22
2019-06-26T04:23:11.997Z,56.89
2019-06-26T04:23:47.804Z,56.77
2019-06-26T04:24:23.633Z,56.72
2019-06-26T04:24:59.609Z,56.65
2019-06-26T04:25:38.150Z,56.52
2019-06-26T04:26:13.062Z,56.56
2019-06-26T04:26:48.913Z,56.80
2019-06-26T04:27:25.942Z,57.04
2019-06-26T04:28:02.068Z,57.06
2019-06-26T04:28:38.054Z,57.25
2019-06-26T04:29:13.911Z,57.21
2019-06-26T04:29:49.737Z,57.05
2019-06-26T04:30:25.733Z,56.89
2019-06-26T04:31:01.579Z,56.73
2019-06-26T04:31:37.450Z,56.76
2019-06-26T04:32:13.314Z,56.84
2019-06-26T04:32:49.167Z,56.82
2019-06-26T04:33:24.985Z,56.90
2019-06-26T04:34:00.796Z,56.99
2019-06-26T04:34:36.668Z,57.03
2019-06-26T04:35:12.680Z,57.03
2019-06-26T04:35:48.503Z,57.25
2019-06-26T04:36:24.375Z,57.24
2019-06-26T04:37:00.218Z,57.21
2019-06-26T04:37:36.049Z,57.20
2019-06-26T04:38:11.871Z,57.28
2019-06-26T04:38:47.683Z,57.31
2019-06-26T04:39:23.530Z,57.32
2019-06-26T04:39:59.395Z,57.31
2019-06-26T04:40:35.397Z,57.29
2019-06-26T04:41:11.196Z,57.31
2019-06-26T04:41:47.059Z,57.34
2019-06-26T04:42:22.956Z,57.51
2019-06-26T04:42:58.912Z,57.36
2019-06-26T04:43:34.693Z,57.26
2019-06-26T04:44:10.515Z,57.48
2019-06-26T04:44:46.330Z,57.62
2019-06-26T04:45:22.183Z,57.85
2019-06-26T04:45:58.856Z,57.93
2019-06-26T04:46:34.947Z,57.86
2019-06-26T04:47:10.766Z,57.74
2019-06-26T04:47:46.587Z,57.85
2019-06-26T04:48:22.393Z,57.91
2019-06-26T04:48:58.362Z,57.82
2019-06-26T04:49:34.168Z,57.75
2019-06-26T04:50:10.325Z,57.70
2019-06-26T04:50:46.198Z,57.68
2019-06-26T04:51:22.146Z,57.68
2019-06-26T04:51:58.179Z,57.61
2019-06-26T04:52:34.021Z,57.53
2019-06-26T04:53:09.858Z,57.72
2019-06-26T04:53:45.677Z,57.61
2019-06-26T04:54:21.560Z,57.59
2019-06-26T04:54:57.382Z,57.53
2019-06-26T04:55:33.306Z,57.51
2019-06-26T04:56:09.261Z,57.44
2019-06-26T04:56:45.112Z,57.43
2019-06-26T04:57:21.103Z,57.28
2019-06-26T04:57:56.938Z,57.11
2019-06-26T04:58:32.828Z,56.94
2019-06-26T04:59:08.653Z,56.89
2019-06-26T04:59:44.498Z,56.98
2019-06-26T05:00:21.845Z,57.15
2019-06-26T05:00:57.948Z,57.27
2019-06-26T05:01:33.792Z,57.09
2019-06-26T05:02:09.620Z,56.98
2019-06-26T05:02:45.510Z,56.94
2019-06-26T05:03:21.417Z,56.75
2019-06-26T05:03:57.220Z,56.67
2019-06-26T05:04:34.207Z,56.71
2019-06-26T05:05:10.153Z,56.77
2019-06-26T05:05:45.996Z,56.73
2019-06-26T05:06:21.803Z,56.40
2019-06-26T05:06:57.785Z,56.27
2019-06-26T05:07:34.201Z,56.21
2019-06-26T05:08:10.079Z,56.19
2019-06-26T05:08:45.911Z,56.10
2019-06-26T05:09:21.869Z,56.05
2019-06-26T05:09:57.813Z,56.09
2019-06-26T05:10:33.652Z,56.25
2019-06-26T05:11:12.515Z,56.48
2019-06-26T05:11:47.159Z,56.49
2019-06-26T05:12:22.987Z,56.33
2019-06-26T05:12:58.839Z,56.27
2019-06-26T05:13:34.783Z,56.06
2019-06-26T05:14:10.727Z,56.14
2019-06-26T05:14:46.551Z,56.06
2019-06-26T05:15:22.610Z,56.17
2019-06-26T05:16:13.726Z,56.07
2019-06-26T05:16:36.122Z,56.03
2019-06-26T05:17:11.966Z,55.76
2019-06-26T05:17:47.797Z,55.64
2019-06-26T05:18:23.718Z,55.58
2019-06-26T05:18:59.724Z,55.49
2019-06-26T05:19:35.585Z,55.40
2019-06-26T05:20:11.998Z,55.26
2019-06-26T05:20:48.084Z,54.94
2019-06-26T05:21:24.009Z,55.22
2019-06-26T05:21:59.933Z,55.24
2019-06-26T05:22:35.736Z,55.28
2019-06-26T05:23:11.578Z,55.23
2019-06-26T05:23:47.392Z,55.29
2019-06-26T05:24:24.061Z,55.25
2019-06-26T05:24:59.845Z,55.30
2019-06-26T05:25:35.689Z,55.40
2019-06-26T05:26:11.512Z,55.34
2019-06-26T05:26:47.486Z,55.37
2019-06-26T05:27:23.298Z,55.37
2019-06-26T05:27:59.285Z,55.29
2019-06-26T05:28:35.100Z,54.89
2019-06-26T05:29:10.939Z,54.66
2019-06-26T05:29:46.898Z,54.70
2019-06-26T05:30:22.726Z,54.68
2019-06-26T05:30:58.709Z,54.61
2019-06-26T05:31:34.542Z,54.67
2019-06-26T05:32:10.402Z,54.63
2019-06-26T05:32:46.211Z,54.58
2019-06-26T05:33:22.051Z,54.44
2019-06-26T05:33:57.841Z,54.23
2019-06-26T05:34:33.777Z,53.91
2019-06-26T05:35:09.663Z,53.89
2019-06-26T05:35:45.496Z,53.82
2019-06-26T05:36:21.332Z,53.75
2019-06-26T05:36:57.212Z,53.84
2019-06-26T05:37:33.079Z,54.29
2019-06-26T05:38:08.910Z,54.20
2019-06-26T05:38:44.729Z,54.27
2019-06-26T05:39:20.557Z,54.20
2019-06-26T05:39:56.385Z,54.11
2019-06-26T05:40:32.248Z,54.01
2019-06-26T05:41:08.190Z,53.97
2019-06-26T05:41:44.027Z,53.88
2019-06-26T05:42:19.843Z,53.92
2019-06-26T05:42:55.741Z,53.80
2019-06-26T05:43:31.701Z,53.65
2019-06-26T05:44:07.537Z,53.08
2019-06-26T05:44:43.409Z,52.54
2019-06-26T05:45:19.291Z,52.24
2019-06-26T05:45:55.251Z,52.22
2019-06-26T05:46:31.881Z,52.22
2019-06-26T05:47:07.829Z,52.38
2019-06-26T05:47:43.693Z,52.48
2019-06-26T05:48:19.555Z,52.73
2019-06-26T05:48:55.393Z,52.81
2019-06-26T05:49:31.213Z,52.63
2019-06-26T05:50:07.744Z,52.67
2019-06-26T05:50:43.850Z,52.64
2019-06-26T05:51:19.703Z,52.56
2019-06-26T05:51:55.855Z,52.62
2019-06-26T05:52:31.647Z,52.77
2019-06-26T05:53:07.612Z,52.65
2019-06-26T05:53:43.440Z,52.79
2019-06-26T05:54:19.218Z,52.95
2019-06-26T05:54:55.157Z,52.82
2019-06-26T05:55:30.961Z,52.81
2019-06-26T05:56:06.850Z,52.57
2019-06-26T05:56:45.328Z,52.66
2019-06-26T05:57:20.721Z,52.76
2019-06-26T05:57:56.581Z,52.86
2019-06-26T05:58:32.455Z,52.91
2019-06-26T05:59:08.388Z,53.16
2019-06-26T05:59:44.454Z,53.25
2019-06-26T06:00:20.458Z,53.26
2019-06-26T06:00:56.252Z,53.46
2019-06-26T06:01:32.090Z,53.58
2019-06-26T06:02:07.950Z,53.70
2019-06-26T06:02:43.770Z,53.75
2019-06-26T06:03:19.716Z,53.77
2019-06-26T06:03:55.522Z,53.85
2019-06-26T06:04:31.506Z,54.16
2019-06-26T06:05:07.601Z,54.15
2019-06-26T06:05:43.427Z,54.14
2019-06-26T06:06:19.355Z,54.29
2019-06-26T06:06:55.214Z,54.26
2019-06-26T06:07:31.000Z,54.33
2019-06-26T06:08:06.841Z,54.30
2019-06-26T06:08:42.696Z,54.24
2019-06-26T06:09:18.665Z,54.15
2019-06-26T06:09:54.825Z,53.93
2019-06-26T06:10:31.366Z,53.92
2019-06-26T06:11:08.187Z,53.83
2019-06-26T06:11:44.848Z,53.70
2019-06-26T06:12:21.527Z,53.57
2019-06-26T06:12:57.855Z,53.44
2019-06-26T06:13:34.272Z,53.30
2019-06-26T06:14:10.659Z,53.12
2019-06-26T06:14:46.755Z,52.49
2019-06-26T06:15:23.236Z,52.28
2019-06-26T06:15:59.547Z,51.93
2019-06-26T06:16:46.814Z,51.78
2019-06-26T06:17:13.804Z,51.63
2019-06-26T06:17:50.108Z,51.34
2019-06-26T06:18:26.462Z,51.24
2019-06-26T06:19:02.923Z,51.19
2019-06-26T06:19:39.349Z,50.98
2019-06-26T06:20:16.087Z,50.94
2019-06-26T06:20:52.338Z,50.87
2019-06-26T06:21:28.896Z,50.92
2019-06-26T06:22:04.839Z,50.69
2019-06-26T06:22:40.851Z,50.76
2019-06-26T06:23:16.875Z,50.57
2019-06-26T06:23:53.455Z,50.72
2019-06-26T06:24:29.736Z,50.92
2019-06-26T06:25:06.086Z,50.71
2019-06-26T06:25:42.477Z,50.42
2019-06-26T06:26:18.832Z,50.50
2019-06-26T06:26:54.923Z,50.68
2019-06-26T06:27:31.444Z,50.63
2019-06-26T06:28:08.377Z,50.67
2019-06-26T06:28:44.853Z,50.58
2019-06-26T06:29:22.131Z,50.75
2019-06-26T06:29:58.604Z,50.80
2019-06-26T06:30:34.943Z,50.75
2019-06-26T06:31:11.168Z,50.79
2019-06-26T06:31:47.217Z,50.75
2019-06-26T06:32:23.410Z,50.70
2019-06-26T06:32:59.750Z,50.73
2019-06-26T06:33:36.066Z,50.71
2019-06-26T06:34:12.413Z,50.62
2019-06-26T06:34:48.660Z,50.74
2019-06-26T06:35:24.726Z,50.55
2019-06-26T06:36:02.333Z,50.18
2019-06-26T06:36:38.691Z,50.09
2019-06-26T06:37:14.796Z,50.10
2019-06-26T06:37:51.012Z,50.03
2019-06-26T06:38:27.436Z,50.14
2019-06-26T06:39:04.292Z,49.92
2019-06-26T06:39:40.191Z,49.80
2019-06-26T06:40:16.345Z,49.87
2019-06-26T06:40:52.232Z,49.74
2019-06-26T06:41:28.227Z,49.26
2019-06-26T06:42:04.221Z,49.29
2019-06-26T06:42:40.142Z,48.92
2019-06-26T06:43:16.661Z,48.55
2019-06-26T06:43:52.612Z,48.41
2019-06-26T06:44:28.494Z,48.49
2019-06-26T06:45:04.344Z,48.46
2019-06-26T06:45:40.197Z,48.62
2019-06-26T06:46:15.963Z,48.46
2019-06-26T06:47:03.245Z,48.29
2019-06-26T06:47:33.482Z,48.16
2019-06-26T06:48:09.315Z,48.10
2019-06-26T06:48:45.156Z,48.29
2019-06-26T06:49:20.962Z,48.32
2019-06-26T06:49:56.770Z,48.32
2019-06-26T06:50:32.618Z,48.52
2019-06-26T06:51:08.574Z,48.69
2019-06-26T06:51:44.435Z,48.86
2019-06-26T06:52:20.383Z,48.86
2019-06-26T06:52:56.321Z,48.98
2019-06-26T06:53:32.284Z,49.16
2019-06-26T06:54:08.297Z,49.32
2019-06-26T06:54:44.143Z,49.47
2019-06-26T06:55:20.030Z,49.70
2019-06-26T06:55:55.807Z,49.88
2019-06-26T06:56:31.680Z,49.96
2019-06-26T06:57:07.649Z,49.77
2019-06-26T07:09:25.274Z,52.15
2019-06-26T07:10:01.136Z,52.11
2019-06-26T07:10:36.965Z,51.91
2019-06-26T07:11:12.803Z,51.89
2019-06-26T07:11:48.552Z,52.11
2019-06-26T07:12:24.589Z,52.11
2019-06-26T07:13:00.705Z,52.09
2019-06-26T07:13:36.708Z,52.04
2019-06-26T07:14:12.569Z,51.96
2019-06-26T07:14:48.481Z,52.05
2019-06-26T07:15:24.320Z,52.15
2019-06-26T07:16:00.170Z,52.12
2019-06-26T07:16:36.002Z,52.21
2019-06-26T07:17:20.352Z,52.48
2019-06-26T07:17:49.487Z,52.54
2019-06-26T07:18:25.403Z,52.65
2019-06-26T07:19:01.230Z,52.66
2019-06-26T07:19:37.059Z,52.73
2019-06-26T07:20:13.322Z,52.95
2019-06-26T07:20:49.254Z,53.08
2019-06-26T07:21:25.166Z,53.06
2019-06-26T07:22:01.406Z,52.96
2019-06-26T07:22:37.242Z,52.74
2019-06-26T07:23:13.090Z,52.73
2019-06-26T07:23:48.983Z,52.79
2019-06-26T07:24:24.795Z,52.77
2019-06-26T07:25:00.626Z,52.85
2019-06-26T07:25:36.467Z,52.80
2019-06-26T07:26:13.397Z,52.74
2019-06-26T07:26:49.419Z,52.66
2019-06-26T07:27:25.371Z,52.68
2019-06-26T07:28:02.112Z,52.65
2019-06-26T07:28:41.190Z,52.56
2019-06-26T07:29:16.983Z,52.63
2019-06-26T07:29:52.798Z,52.64
2019-06-26T07:30:28.600Z,52.61
2019-06-26T07:31:04.505Z,52.35
2019-06-26T07:31:40.460Z,52.16
2019-06-26T07:32:16.332Z,52.12
2019-06-26T07:32:52.135Z,52.19
2019-06-26T07:33:28.011Z,52.31
2019-06-26T07:34:03.862Z,52.43
2019-06-26T07:34:39.719Z,52.61
2019-06-26T07:35:15.632Z,52.82
2019-06-26T07:35:51.452Z,52.97
2019-06-26T07:36:27.269Z,53.08
2019-06-26T07:37:03.152Z,53.29
2019-06-26T07:37:39.023Z,53.41
2019-06-26T07:38:14.956Z,53.47
2019-06-26T07:38:50.811Z,53.55
2019-06-26T07:39:26.632Z,53.65
2019-06-26T07:40:02.609Z,53.61
2019-06-26T07:40:38.482Z,53.54
2019-06-26T07:41:14.359Z,53.34
2019-06-26T07:41:50.234Z,53.08
2019-06-26T07:42:26.368Z,53.10
2019-06-26T07:43:02.285Z,53.22
2019-06-26T07:43:38.190Z,53.33
2019-06-26T07:44:14.011Z,53.51
2019-06-26T07:44:49.892Z,53.62
2019-06-26T07:45:25.669Z,53.83
2019-06-26T07:46:01.449Z,53.91
2019-06-26T07:46:37.267Z,54.00
2019-06-26T07:47:23.132Z,54.13
2019-06-26T07:47:50.710Z,54.26
2019-06-26T07:48:26.547Z,54.31
2019-06-26T07:49:02.535Z,54.35
2019-06-26T07:49:38.316Z,54.44
2019-06-26T07:50:14.380Z,54.50
2019-06-26T07:50:50.195Z,54.40
2019-06-26T07:51:26.042Z,54.26
2019-06-26T07:52:01.861Z,53.93
2019-06-26T07:52:37.687Z,53.79
2019-06-26T07:53:13.475Z,53.70
2019-06-26T07:53:49.325Z,53.68
2019-06-26T07:54:25.181Z,53.50
2019-06-26T07:55:01.142Z,53.38
2019-06-26T07:55:40.358Z,53.11
2019-06-26T07:56:14.637Z,52.84
2019-06-26T07:56:50.499Z,52.75
2019-06-26T07:57:26.302Z,52.91
2019-06-26T07:58:02.160Z,52.99
2019-06-26T07:58:38.038Z,53.10
2019-06-26T07:59:13.872Z,53.00
2019-06-26T07:59:49.787Z,52.99
2019-06-26T08:00:25.729Z,52.93
2019-06-26T08:01:01.558Z,52.87
2019-06-26T08:01:37.378Z,52.73
2019-06-26T08:02:13.348Z,52.70
2019-06-26T08:02:49.265Z,52.66
2019-06-26T08:03:25.165Z,52.63
2019-06-26T08:04:00.969Z,52.63
2019-06-26T08:04:36.824Z,52.64
2019-06-26T08:05:14.222Z,52.72
2019-06-26T08:05:50.032Z,52.80
2019-06-26T08:06:25.841Z,52.85
2019-06-26T08:07:01.735Z,52.95
2019-06-26T08:07:37.661Z,52.98
2019-06-26T08:08:14.883Z,53.02
2019-06-26T08:08:51.003Z,52.97
2019-06-26T08:09:26.900Z,53.05
2019-06-26T08:10:02.815Z,53.13
2019-06-26T08:10:38.644Z,53.17
2019-06-26T08:11:14.489Z,53.23
2019-06-26T08:11:50.381Z,53.27
2019-06-26T08:12:26.198Z,53.39
2019-06-26T08:13:02.077Z,53.42
2019-06-26T08:13:37.887Z,53.40
2019-06-26T08:14:13.755Z,53.42
2019-06-26T08:14:49.617Z,53.40
2019-06-26T08:15:25.542Z,53.22
2019-06-26T08:16:01.419Z,53.11
2019-06-26T08:16:37.331Z,53.07
2019-06-26T08:17:13.148Z,52.89
2019-06-26T08:17:59.860Z,52.75